Time;durP1;ratioP1;P1;durP2;ratioP2;P2;SDS_P1;SDS_P2;PMS_P1;PMS_P2;Temp;Humidity;BMP_temperature;BMP_pressure;BME280_temperature;BME280_humidity;BME280_pressure;Samples;Min_cycle;Max_cycle;Signal;HPM_P1;HPM_P2
2021/09/16 00:01:30;;;;;;;10.75;7.07;;;;;;;19.28;98.59;98558.81;5081652;28;20047;-58
2021/09/16 00:03:55;;;;;;;13.02;7.40;;;;;;;19.29;98.89;98565.72;5091394;28;20420;-58
2021/09/16 00:06:21;;;;;;;13.27;8.10;;;;;;;19.31;99.58;98564.50;5085919;28;20036;-58
2021/09/16 00:08:46;;;;;;;13.02;7.78;;;;;;;19.29;99.81;98563.88;5090031;28;20529;-58
2021/09/16 00:11:12;;;;;;;14.25;7.93;;;;;;;19.26;99.37;98563.47;5071178;28;20793;-58
2021/09/16 00:13:37;;;;;;;11.05;7.88;;;;;;;19.29;99.90;98568.34;5076241;28;20028;-59
2021/09/16 00:16:03;;;;;;;12.13;7.50;;;;;;;19.34;100.00;98569.34;5089180;28;20117;-59
2021/09/16 00:18:28;;;;;;;11.52;7.43;;;;;;;19.36;100.00;98562.06;5095571;28;20028;-59
2021/09/16 00:20:54;;;;;;;11.00;7.38;;;;;;;19.37;100.00;98565.53;5097425;28;20085;-59
2021/09/16 00:23:19;;;;;;;13.60;8.35;;;;;;;19.23;100.00;98548.88;5101467;28;20028;-59
2021/09/16 00:25:45;;;;;;;12.23;7.65;;;;;;;19.28;99.65;98548.28;5093834;28;20067;-59
2021/09/16 00:28:10;;;;;;;14.82;8.23;;;;;;;19.24;99.65;98554.94;5095031;28;20077;-59
2021/09/16 00:30:35;;;;;;;18.17;10.05;;;;;;;19.12;100.00;98523.94;5076217;28;20485;-60
2021/09/16 00:33:01;;;;;;;16.02;8.88;;;;;;;19.03;100.00;98514.59;5073563;28;20027;-58
2021/09/16 00:35:27;;;;;;;14.95;7.82;;;;;;;19.10;100.00;98536.50;5072391;28;20737;-57
2021/09/16 00:37:52;;;;;;;13.43;6.88;;;;;;;19.06;100.00;98535.28;5074771;28;20024;-57
2021/09/16 00:40:18;;;;;;;12.52;7.38;;;;;;;18.96;100.00;98533.03;5075436;28;20537;-57
2021/09/16 00:42:44;;;;;;;11.60;6.80;;;;;;;18.99;100.00;98529.19;5098655;28;20469;-58
2021/09/16 00:45:10;;;;;;;11.70;7.78;;;;;;;18.94;100.00;98532.41;5074729;28;20035;-58
2021/09/16 00:47:43;;;;;;;12.57;7.53;;;;;;;18.98;100.00;98531.03;5096169;28;20592;-59
2021/09/16 00:50:09;;;;;;;11.50;7.20;;;;;;;18.96;100.00;98538.28;5092830;28;20028;-58
2021/09/16 00:52:35;;;;;;;14.23;7.32;;;;;;;18.94;100.00;98535.06;5094373;28;20027;-59
2021/09/16 00:55:01;;;;;;;16.00;7.45;;;;;;;18.73;100.00;98512.31;5091145;28;20114;-59
2021/09/16 00:57:27;;;;;;;10.30;7.63;;;;;;;18.88;100.00;98529.78;5088842;28;20548;-59
2021/09/16 00:59:53;;;;;;;11.90;7.90;;;;;;;18.95;100.00;98531.41;5096756;28;20046;-58
2021/09/16 01:02:18;;;;;;;9.82;7.85;;;;;;;18.97;100.00;98533.84;5078165;28;20040;-59
2021/09/16 01:04:44;;;;;;;12.07;8.13;;;;;;;18.97;100.00;98539.94;5078386;28;20517;-59
2021/09/16 01:07:13;;;;;;;10.85;8.23;;;;;;;18.99;100.00;98537.91;5088312;28;20051;-59
2021/09/16 01:09:38;;;;;;;13.38;9.00;;;;;;;19.05;100.00;98528.38;5093442;28;20493;-59
2021/09/16 01:12:04;;;;;;;12.65;8.40;;;;;;;19.09;100.00;98534.88;5081885;28;20053;-59
2021/09/16 01:14:30;;;;;;;11.52;8.50;;;;;;;19.06;100.00;98524.75;5073565;28;20032;-59
2021/09/16 01:16:56;;;;;;;12.25;7.78;;;;;;;19.01;100.00;98527.97;5100034;28;20027;-59
2021/09/16 01:19:22;;;;;;;13.05;8.10;;;;;;;18.80;100.00;98505.22;5082437;28;20030;-58
2021/09/16 01:21:48;;;;;;;12.65;7.22;;;;;;;19.04;100.00;98531.22;5099374;28;20035;-59
2021/09/16 01:24:14;;;;;;;12.80;7.57;;;;;;;18.75;100.00;98496.31;5077539;28;20027;-58
2021/09/16 01:26:41;;;;;;;11.90;8.00;;;;;;;18.90;100.00;98528.56;5087007;28;20385;-59
2021/09/16 01:29:07;;;;;;;13.85;8.13;;;;;;;18.81;100.00;98516.59;5096954;28;20027;-58
2021/09/16 01:31:36;;;;;;;12.40;8.05;;;;;;;18.91;100.00;98527.56;5098491;28;20023;-59
2021/09/16 01:34:05;;;;;;;10.90;8.25;;;;;;;18.95;100.00;98522.72;5095512;28;20068;-58
2021/09/16 01:36:31;;;;;;;14.00;9.27;;;;;;;18.90;100.00;98514.59;5094209;28;20042;-58
2021/09/16 01:38:57;;;;;;;13.55;8.48;;;;;;;18.92;100.00;98521.28;5099033;28;20051;-59
2021/09/16 01:41:22;;;;;;;11.90;8.82;;;;;;;18.98;100.00;98520.50;5082047;28;20027;-58
2021/09/16 01:43:48;;;;;;;13.38;8.85;;;;;;;19.01;100.00;98514.00;5094334;28;20681;-58
2021/09/16 01:46:13;;;;;;;15.90;9.20;;;;;;;19.00;100.00;98507.09;5066679;28;20534;-59
2021/09/16 01:48:39;;;;;;;13.27;8.32;;;;;;;18.99;100.00;98511.56;5069259;28;20043;-59
2021/09/16 01:51:04;;;;;;;11.43;8.60;;;;;;;18.76;100.00;98459.22;5089242;28;20643;-59
2021/09/16 01:53:29;;;;;;;13.23;8.00;;;;;;;19.01;100.00;98506.91;5055509;28;20499;-59
2021/09/16 01:55:55;;;;;;;16.95;8.95;;;;;;;19.09;100.00;98508.50;5075159;28;20035;-58
2021/09/16 01:58:20;;;;;;;13.50;8.85;;;;;;;19.05;100.00;98507.31;5098068;28;20032;-58
2021/09/16 02:00:46;;;;;;;12.15;8.57;;;;;;;18.95;100.00;98499.81;5080124;28;20023;-58
2021/09/16 02:03:11;;;;;;;13.52;8.27;;;;;;;18.96;100.00;98505.88;5099498;28;20043;-58
2021/09/16 02:05:37;;;;;;;12.52;7.90;;;;;;;18.91;100.00;98495.97;5094790;28;20849;-58
2021/09/16 02:08:03;;;;;;;11.98;8.25;;;;;;;18.93;100.00;98509.75;5080058;28;20669;-58
2021/09/16 02:10:28;;;;;;;13.57;8.50;;;;;;;18.89;100.00;98499.78;5078902;28;20496;-59
2021/09/16 02:12:54;;;;;;;10.68;8.15;;;;;;;18.90;100.00;98493.53;5093593;28;20031;-58
2021/09/16 02:15:19;;;;;;;13.00;8.52;;;;;;;18.78;100.00;98469.56;5094952;28;20378;-57
2021/09/16 02:17:44;;;;;;;12.75;9.15;;;;;;;18.87;100.00;98476.28;5093633;28;20126;-58
2021/09/16 02:20:10;;;;;;;13.60;9.48;;;;;;;18.82;100.00;98460.28;5071735;28;20047;-58
2021/09/16 02:22:36;;;;;;;12.18;9.00;;;;;;;18.84;100.00;98450.38;5096948;28;20058;-58
2021/09/16 02:25:01;;;;;;;13.23;9.50;;;;;;;18.81;100.00;98445.50;5094801;28;20080;-58
2021/09/16 02:27:27;;;;;;;13.20;8.95;;;;;;;18.77;100.00;98437.16;5080321;28;20024;-58
2021/09/16 02:29:52;;;;;;;14.60;9.32;;;;;;;18.79;100.00;98444.84;5096474;28;20077;-58
2021/09/16 02:32:17;;;;;;;13.50;9.13;;;;;;;18.78;100.00;98443.22;5093976;28;20074;-58
2021/09/16 02:34:43;;;;;;;12.75;9.10;;;;;;;18.83;100.00;98443.47;5072280;28;20100;-58
2021/09/16 02:37:08;;;;;;;13.52;9.85;;;;;;;18.56;100.00;98409.19;5091489;28;20028;-58
2021/09/16 02:39:34;;;;;;;11.80;9.60;;;;;;;18.72;100.00;98449.31;5093619;28;20039;-58
2021/09/16 02:41:59;;;;;;;14.80;9.45;;;;;;;18.76;100.00;98461.84;5102749;28;20031;-58
2021/09/16 02:44:24;;;;;;;12.27;9.38;;;;;;;18.77;100.00;98452.94;5086216;28;20710;-59
2021/09/16 02:46:50;;;;;;;13.45;8.85;;;;;;;18.57;100.00;98425.78;5087515;28;20031;-58
2021/09/16 02:49:15;;;;;;;13.73;9.02;;;;;;;18.80;100.00;98457.00;5096293;28;20038;-58
2021/09/16 02:51:41;;;;;;;12.40;7.93;;;;;;;18.78;99.47;98451.13;5091910;28;20081;-58
2021/09/16 02:54:06;;;;;;;12.48;8.40;;;;;;;18.82;99.31;98447.91;5078251;28;20020;-59
2021/09/16 02:56:32;;;;;;;10.52;8.10;;;;;;;18.59;99.89;98421.13;5098693;28;20096;-59
2021/09/16 02:58:57;;;;;;;12.75;7.78;;;;;;;18.77;100.00;98450.31;5095733;28;20746;-59
2021/09/16 03:01:22;;;;;;;10.75;7.45;;;;;;;18.83;100.00;98451.38;5076672;28;20032;-59
2021/09/16 03:03:48;;;;;;;10.18;7.95;;;;;;;18.92;100.00;98449.34;5104412;28;20035;-59
2021/09/16 03:06:13;;;;;;;9.15;7.57;;;;;;;18.80;99.50;98425.38;5081961;28;20043;-58
2021/09/16 03:08:39;;;;;;;10.35;8.00;;;;;;;18.92;100.00;98436.97;5101207;28;20061;-58
2021/09/16 03:11:04;;;;;;;11.93;7.95;;;;;;;18.89;100.00;98440.03;5097132;28;20038;-58
2021/09/16 03:13:30;;;;;;;10.80;8.07;;;;;;;18.81;100.00;98442.84;5097432;28;20035;-58
2021/09/16 03:15:55;;;;;;;11.10;8.35;;;;;;;18.70;100.00;98438.16;5099156;28;20088;-57
2021/09/16 03:18:20;;;;;;;10.88;7.55;;;;;;;18.50;99.40;98394.19;5093681;28;20478;-58
2021/09/16 03:20:46;;;;;;;12.20;7.57;;;;;;;18.73;98.82;98421.97;5079150;28;20093;-58
2021/09/16 03:23:11;;;;;;;10.13;7.25;;;;;;;18.79;98.04;98429.03;5096047;28;20031;-58
2021/09/16 03:25:37;;;;;;;9.45;6.20;;;;;;;18.75;97.38;98420.75;5086421;27;20031;-58
2021/09/16 03:28:02;;;;;;;9.95;6.85;;;;;;;18.54;97.91;98394.59;5089346;28;20030;-57
2021/09/16 03:30:28;;;;;;;9.73;6.80;;;;;;;18.79;98.06;98427.22;5095074;28;20028;-57
2021/09/16 03:32:53;;;;;;;11.98;7.53;;;;;;;18.75;98.60;98426.00;5097162;28;20023;-57
2021/09/16 03:35:18;;;;;;;11.27;7.53;;;;;;;18.59;99.16;98414.03;5099664;28;20114;-58
2021/09/16 03:37:44;;;;;;;10.02;6.53;;;;;;;18.78;98.51;98427.41;5093431;28;20034;-58
2021/09/16 03:40:11;;;;;;;11.32;7.53;;;;;;;18.66;99.09;98414.06;5094773;28;20042;-59
2021/09/16 03:42:37;;;;;;;10.52;7.03;;;;;;;18.71;99.46;98424.78;5092352;28;20105;-58
2021/09/16 03:45:03;;;;;;;10.05;7.55;;;;;;;18.73;98.67;98430.66;5100655;28;20035;-57
2021/09/16 03:47:28;;;;;;;11.18;7.45;;;;;;;18.77;98.78;98444.25;5098580;28;20024;-58
2021/09/16 03:49:54;;;;;;;12.23;8.15;;;;;;;18.77;98.78;98455.59;5103015;28;20634;-57
2021/09/16 03:52:19;;;;;;;12.13;7.57;;;;;;;18.76;98.85;98448.69;5102073;28;20034;-58
2021/09/16 03:54:44;;;;;;;10.80;6.97;;;;;;;18.82;97.19;98444.50;5091820;28;20096;-57
2021/09/16 03:57:10;;;;;;;10.23;7.18;;;;;;;18.80;97.13;98436.75;5091666;28;20077;-57
2021/09/16 03:59:35;;;;;;;11.00;6.93;;;;;;;18.82;97.34;98439.22;5070830;28;20081;-57
2021/09/16 04:02:01;;;;;;;10.38;7.32;;;;;;;18.71;97.29;98430.06;5102644;28;20489;-58
2021/09/16 04:04:26;;;;;;;11.60;7.28;;;;;;;18.82;97.05;98440.03;5095122;28;20405;-57
2021/09/16 04:06:51;;;;;;;10.65;7.32;;;;;;;18.80;97.39;98434.13;5075778;28;20028;-57
2021/09/16 04:09:17;;;;;;;9.88;7.30;;;;;;;18.71;98.41;98419.53;5100355;28;20880;-58
2021/09/16 04:11:42;;;;;;;10.43;7.50;;;;;;;18.73;98.83;98420.13;5082710;28;20744;-59
2021/09/16 04:14:08;;;;;;;13.77;8.45;;;;;;;18.61;100.00;98406.75;5100358;28;20027;-61
2021/09/16 04:16:33;;;;;;;10.32;7.60;;;;;;;18.73;100.00;98435.94;5081552;28;20027;-58
2021/09/16 04:18:58;;;;;;;11.75;7.93;;;;;;;18.58;100.00;98425.59;5083222;28;20030;-59
2021/09/16 04:21:24;;;;;;;14.52;8.57;;;;;;;18.59;100.00;98424.56;5098376;28;20482;-58
2021/09/16 04:23:49;;;;;;;11.30;7.50;;;;;;;18.59;100.00;98423.75;5101256;28;20046;-58
2021/09/16 04:26:15;;;;;;;12.30;8.82;;;;;;;18.63;100.00;98424.97;5075268;28;20034;-58
2021/09/16 04:28:41;;;;;;;13.75;9.20;;;;;;;18.52;100.00;98401.88;5077883;28;20470;-57
2021/09/16 04:31:07;;;;;;;12.73;8.90;;;;;;;18.54;100.00;98420.91;5090997;28;20076;-57
2021/09/16 04:33:32;;;;;;;12.18;8.75;;;;;;;18.54;100.00;98413.00;5096207;28;20032;-57
2021/09/16 04:35:58;;;;;;;11.23;7.95;;;;;;;18.51;100.00;98405.50;5092710;28;20106;-58
2021/09/16 04:38:23;;;;;;;12.65;7.85;;;;;;;18.36;100.00;98377.56;5089817;28;20042;-58
2021/09/16 04:40:48;;;;;;;12.57;7.55;;;;;;;18.38;100.00;98372.91;5099958;28;20043;-58
2021/09/16 04:43:14;;;;;;;11.88;7.97;;;;;;;18.40;100.00;98391.16;5099124;28;20031;-58
2021/09/16 04:45:39;;;;;;;10.15;7.00;;;;;;;18.61;99.86;98412.00;5075682;28;20036;-58
2021/09/16 04:48:05;;;;;;;12.45;8.23;;;;;;;18.62;100.00;98418.91;5074013;28;20036;-58
2021/09/16 04:50:30;;;;;;;9.27;6.82;;;;;;;18.58;99.53;98412.44;5102696;28;20020;-58
2021/09/16 04:52:56;;;;;;;9.73;7.28;;;;;;;18.58;100.00;98407.16;5100056;28;20039;-59
2021/09/16 04:55:21;;;;;;;10.38;6.97;;;;;;;18.64;99.05;98413.44;5091454;28;20023;-59
2021/09/16 04:57:47;;;;;;;10.93;7.70;;;;;;;18.66;99.75;98411.41;5076305;28;20035;-58
2021/09/16 05:00:12;;;;;;;14.05;7.72;;;;;;;18.39;100.00;98381.63;5076330;28;20020;-58
2021/09/16 05:02:38;;;;;;;12.23;7.63;;;;;;;18.71;100.00;98421.34;5077198;28;20797;-58
2021/09/16 05:05:05;;;;;;;9.90;7.47;;;;;;;18.63;100.00;98417.06;5098618;28;20036;-58
2021/09/16 05:07:31;;;;;;;9.70;7.68;;;;;;;18.35;100.00;98381.22;5090872;28;20039;-58
2021/09/16 05:09:56;;;;;;;11.40;8.15;;;;;;;18.57;100.00;98416.06;5095086;28;20023;-57
2021/09/16 05:12:22;;;;;;;13.27;8.93;;;;;;;18.59;100.00;98400.88;5097765;28;20474;-57
2021/09/16 05:14:47;;;;;;;13.40;9.75;;;;;;;18.51;100.00;98405.50;5092496;28;20023;-56
2021/09/16 05:17:13;;;;;;;10.57;8.30;;;;;;;18.39;100.00;98385.06;5095936;28;20718;-57
2021/09/16 05:19:38;;;;;;;11.55;8.52;;;;;;;18.52;100.00;98407.94;5100448;28;20483;-56
2021/09/16 05:22:03;;;;;;;12.23;8.82;;;;;;;18.49;100.00;98413.63;5098822;28;20039;-57
2021/09/16 05:24:29;;;;;;;11.32;7.93;;;;;;;18.53;100.00;98411.41;5090713;28;20036;-57
2021/09/16 05:26:54;;;;;;;13.55;9.02;;;;;;;18.62;100.00;98415.47;5099491;28;20528;-58
2021/09/16 05:29:20;;;;;;;11.18;8.40;;;;;;;18.60;100.00;98420.09;5101039;28;20032;-58
2021/09/16 05:31:45;;;;;;;12.65;9.30;;;;;;;18.33;100.00;98383.22;5102562;28;20382;-57
2021/09/16 05:34:11;;;;;;;13.55;8.40;;;;;;;18.55;100.00;98407.56;5068338;28;20108;-58
2021/09/16 05:36:36;;;;;;;12.93;8.75;;;;;;;18.43;100.00;98372.31;5087319;28;20103;-57
2021/09/16 05:39:02;;;;;;;13.00;8.52;;;;;;;18.59;100.00;98418.50;5066124;28;20429;-58
2021/09/16 05:41:30;;;;;;;14.52;8.82;;;;;;;18.38;100.00;98395.78;5090530;28;20093;-57
2021/09/16 05:43:56;;;;;;;13.38;9.05;;;;;;;18.58;100.00;98417.69;5093130;28;20031;-58
2021/09/16 05:46:21;;;;;;;13.88;9.75;;;;;;;18.71;100.00;98431.88;5096515;28;20072;-58
2021/09/16 05:48:46;;;;;;;13.88;9.27;;;;;;;18.68;100.00;98424.38;5097590;28;20028;-58
2021/09/16 05:51:12;;;;;;;13.88;8.85;;;;;;;18.73;100.00;98427.22;5099057;28;20043;-57
2021/09/16 05:53:37;;;;;;;13.80;8.73;;;;;;;18.78;100.00;98430.03;5073307;28;20031;-58
2021/09/16 05:56:03;;;;;;;11.15;8.35;;;;;;;18.76;100.00;98432.06;5088665;28;20034;-57
2021/09/16 05:58:28;;;;;;;12.65;8.93;;;;;;;18.44;100.00;98381.84;5091694;28;20039;-59
2021/09/16 06:00:54;;;;;;;12.35;9.13;;;;;;;18.77;100.00;98434.50;5076999;28;20119;-59
2021/09/16 06:03:19;;;;;;;13.10;8.85;;;;;;;18.78;100.00;98443.22;5090871;28;20035;-59
2021/09/16 06:05:44;;;;;;;12.43;8.57;;;;;;;18.76;100.00;98438.16;5097034;28;20214;-59
2021/09/16 06:08:10;;;;;;;14.98;8.57;;;;;;;18.72;100.00;98428.22;5092969;28;20042;-58
2021/09/16 06:10:35;;;;;;;14.45;8.68;;;;;;;18.63;100.00;98414.44;5059000;28;20028;-59
2021/09/16 06:13:01;;;;;;;13.32;9.07;;;;;;;18.71;100.00;98437.97;5100166;28;20038;-59
2021/09/16 06:15:26;;;;;;;12.88;9.27;;;;;;;18.70;100.00;98420.53;5098413;28;20031;-59
2021/09/16 06:17:51;;;;;;;13.93;8.85;;;;;;;18.67;100.00;98420.13;5078232;28;20032;-59
2021/09/16 06:20:17;;;;;;;15.95;9.30;;;;;;;18.60;100.00;98412.19;5077345;28;20415;-60
2021/09/16 06:22:46;;;;;;;13.98;9.65;;;;;;;18.55;100.00;98402.28;5072765;28;20047;-59
2021/09/16 06:25:13;;;;;;;13.98;9.35;;;;;;;18.78;100.00;98436.16;5073002;28;20147;-59
2021/09/16 06:27:38;;;;;;;13.05;9.25;;;;;;;18.70;100.00;98444.22;5094567;28;20044;-59
2021/09/16 06:30:05;;;;;;;12.90;9.07;;;;;;;18.56;99.52;98413.63;5096287;28;20028;-59
2021/09/16 06:32:33;;;;;;;11.95;8.95;;;;;;;18.53;100.00;98400.88;5075948;28;20038;-59
2021/09/16 06:34:58;;;;;;;12.63;7.47;;;;;;;18.77;99.19;98434.50;5095278;28;20106;-60
2021/09/16 06:37:23;;;;;;;11.68;7.88;;;;;;;18.82;99.22;98445.28;5074601;28;20110;-60
2021/09/16 06:39:49;;;;;;;11.70;8.27;;;;;;;18.81;99.25;98450.75;5093335;28;20538;-59
2021/09/16 06:42:14;;;;;;;13.73;8.57;;;;;;;18.73;99.73;98433.31;5093643;28;20036;-59
2021/09/16 06:44:41;;;;;;;11.60;8.18;;;;;;;18.77;100.00;98433.72;5094369;28;20651;-60
2021/09/16 06:47:06;;;;;;;12.93;8.43;;;;;;;18.75;100.00;98436.53;5092582;28;20035;-59
2021/09/16 06:49:36;;;;;;;11.60;7.82;;;;;;;18.76;99.17;98432.06;5099269;28;20028;-59
2021/09/16 06:52:02;;;;;;;11.93;7.00;;;;;;;18.72;99.16;98433.50;5093328;28;20161;-59
2021/09/16 06:54:27;;;;;;;11.25;6.82;;;;;;;18.82;98.12;98434.75;5091283;28;20106;-59
2021/09/16 06:56:53;;;;;;;12.10;6.95;;;;;;;18.64;98.10;98401.06;5090627;28;20036;-59
2021/09/16 06:59:18;;;;;;;10.77;6.72;;;;;;;18.59;98.54;98389.53;5070338;28;20069;-59
2021/09/16 07:01:44;;;;;;;9.80;6.50;;;;;;;18.91;97.63;98432.72;5094298;28;20039;-59
2021/09/16 07:04:09;;;;;;;11.63;6.13;;;;;;;18.89;97.37;98429.50;5075038;28;20027;-59
2021/09/16 07:06:34;;;;;;;7.60;5.22;;;;;;;18.87;96.91;98428.88;5098160;28;20039;-59
2021/09/16 07:09:00;;;;;;;13.10;6.55;;;;;;;18.90;98.00;98441.63;5097473;28;20024;-59
2021/09/16 07:11:25;;;;;;;10.80;6.40;;;;;;;18.93;98.64;98433.34;5100212;28;20020;-59
2021/09/16 07:13:50;;;;;;;9.13;6.30;;;;;;;18.84;98.95;98442.47;5095035;28;20027;-59
2021/09/16 07:16:16;;;;;;;11.52;6.47;;;;;;;18.94;99.48;98447.31;5093912;28;20103;-59
2021/09/16 07:18:41;;;;;;;10.70;5.90;;;;;;;18.76;100.00;98443.41;5087643;28;20062;-58
2021/09/16 07:21:07;;;;;;;13.80;7.72;;;;;;;18.78;100.00;98436.16;5075083;28;20140;-58
2021/09/16 07:23:32;;;;;;;15.88;7.75;;;;;;;18.75;100.00;98433.09;5087470;28;20028;-58
2021/09/16 07:25:57;;;;;;;8.85;6.20;;;;;;;18.62;100.00;98437.34;5072722;28;21097;-58
2021/09/16 07:28:23;;;;;;;9.52;6.20;;;;;;;18.61;100.00;98446.25;5076858;28;20023;-58
2021/09/16 07:30:48;;;;;;;9.50;6.30;;;;;;;18.48;100.00;98413.84;5091492;28;20491;-58
2021/09/16 07:33:14;;;;;;;11.65;7.18;;;;;;;18.72;100.00;98442.19;5094029;28;20065;-59
2021/09/16 07:35:39;;;;;;;12.63;6.93;;;;;;;18.70;100.00;98448.69;5093003;28;20137;-59
2021/09/16 07:38:05;;;;;;;11.43;6.93;;;;;;;18.55;100.00;98414.66;5096004;28;20031;-59
2021/09/16 07:40:31;;;;;;;10.93;6.53;;;;;;;18.56;100.00;98429.41;5080343;28;20758;-59
2021/09/16 07:42:56;;;;;;;9.73;6.80;;;;;;;18.73;100.00;98451.75;5083580;28;20032;-59
2021/09/16 07:45:22;;;;;;;14.60;6.82;;;;;;;18.57;100.00;98413.44;5103611;28;20066;-59
2021/09/16 07:47:47;;;;;;;13.63;6.65;;;;;;;18.84;100.00;98450.38;5098098;28;20376;-59
2021/09/16 07:50:13;;;;;;;11.20;6.00;;;;;;;18.95;99.52;98464.75;5103658;28;20077;-59
2021/09/16 07:52:38;;;;;;;10.48;6.53;;;;;;;18.68;100.00;98424.38;5095019;28;20103;-59
2021/09/16 07:55:04;;;;;;;11.48;6.72;;;;;;;18.66;100.00;98419.31;5094753;28;20032;-58
2021/09/16 07:57:30;;;;;;;9.55;6.50;;;;;;;18.90;100.00;98461.91;5090419;28;20059;-58
2021/09/16 07:59:55;;;;;;;11.35;6.47;;;;;;;18.89;100.00;98458.47;5101235;28;20066;-58
2021/09/16 08:02:21;;;;;;;10.25;5.95;;;;;;;18.90;100.00;98462.72;5082730;28;20921;-59
2021/09/16 08:04:46;;;;;;;10.20;6.05;;;;;;;18.96;100.00;98467.16;5092691;28;20047;-59
2021/09/16 08:07:11;;;;;;;12.43;7.03;;;;;;;19.02;100.00;98466.38;5085042;28;20114;-59
2021/09/16 08:09:37;;;;;;;11.80;7.10;;;;;;;18.98;100.00;98470.44;5077586;28;20027;-59
2021/09/16 08:12:02;;;;;;;14.18;7.10;;;;;;;18.91;100.00;98464.34;5084258;28;20024;-59
2021/09/16 08:14:28;;;;;;;9.13;6.13;;;;;;;18.76;100.00;98432.88;5077339;28;20125;-59
2021/09/16 08:16:53;;;;;;;12.00;6.13;;;;;;;18.80;100.00;98433.28;5097447;28;20059;-59
2021/09/16 08:19:18;;;;;;;10.30;6.03;;;;;;;18.96;100.00;98466.34;5098168;28;20031;-59
2021/09/16 08:21:44;;;;;;;9.82;6.25;;;;;;;19.01;99.41;98479.75;5099841;28;20031;-60
2021/09/16 08:24:09;;;;;;;10.73;6.00;;;;;;;18.99;98.15;98474.66;5103015;28;20562;-60
2021/09/16 08:26:35;;;;;;;8.45;5.05;;;;;;;19.06;97.22;98471.25;5063919;28;20497;-59
2021/09/16 08:29:00;;;;;;;9.38;5.68;;;;;;;18.96;98.66;98456.63;5077838;28;20076;-60
2021/09/16 08:31:26;;;;;;;11.07;6.15;;;;;;;19.04;98.60;98478.50;5100722;28;20035;-59
2021/09/16 08:33:51;;;;;;;11.30;5.70;;;;;;;19.02;98.45;98487.44;5078758;28;20047;-59
2021/09/16 08:36:17;;;;;;;9.07;6.03;;;;;;;19.08;97.73;98483.19;5100547;28;20063;-59
2021/09/16 08:38:42;;;;;;;9.35;5.78;;;;;;;19.02;99.26;98484.00;5100703;28;20106;-59
2021/09/16 08:41:07;;;;;;;7.75;5.10;;;;;;;19.03;97.72;98488.25;5073094;28;20027;-60
2021/09/16 08:43:35;;;;;;;8.93;6.68;;;;;;;19.02;98.12;98484.00;5100394;28;20506;-59
2021/09/16 08:46:01;;;;;;;9.52;6.20;;;;;;;19.03;98.63;98490.88;5084500;28;20092;-59
2021/09/16 08:48:26;;;;;;;9.73;6.22;;;;;;;18.86;98.40;98448.34;5095187;28;20324;-59
2021/09/16 08:50:52;;;;;;;10.77;6.30;;;;;;;18.88;99.40;98453.41;5094699;28;20520;-59
2021/09/16 08:53:27;;;;;;;9.63;6.43;;;;;;;18.89;98.62;98450.56;5075185;28;20148;-59
2021/09/16 08:55:54;;;;;;;9.18;5.43;;;;;;;19.08;97.23;98474.50;5091053;28;20035;-58
2021/09/16 08:58:23;;;;;;;9.73;5.53;;;;;;;18.94;98.04;98439.41;5082038;28;20079;-59
2021/09/16 09:00:49;;;;;;;8.45;5.75;;;;;;;18.93;97.73;98440.41;5079478;28;20031;-59
2021/09/16 09:03:14;;;;;;;8.77;5.53;;;;;;;19.22;98.34;98473.47;5101666;28;20066;-58
2021/09/16 09:05:41;;;;;;;9.60;6.45;;;;;;;19.22;99.32;98465.56;5094668;28;20521;-59
2021/09/16 09:08:09;;;;;;;10.57;6.18;;;;;;;19.37;98.43;98466.16;5103517;28;20093;-59
2021/09/16 09:10:44;;;;;;;7.88;5.35;;;;;;;19.39;95.64;98469.38;5093909;28;20027;-59
2021/09/16 09:13:28;;;;;;;9.95;6.22;;;;;;;19.49;96.03;98463.69;5092868;28;20119;-59
2021/09/16 09:16:04;;;;;;;9.02;5.20;;;;;;;19.48;93.67;98467.34;5100676;28;20045;-59
2021/09/16 09:18:47;;;;;;;9.82;4.60;;;;;;;19.46;93.18;98465.91;5096959;28;20023;-59
2021/09/16 09:21:14;;;;;;;7.45;4.50;;;;;;;19.54;93.78;98477.06;5091396;28;20034;-54
2021/09/16 09:23:54;;;;;;;10.10;4.85;;;;;;;19.57;93.85;98466.09;5102345;28;20027;-59
2021/09/16 09:26:29;;;;;;;10.25;5.50;;;;;;;19.53;94.99;98461.44;5094232;28;20134;-59
2021/09/16 09:29:14;;;;;;;7.45;5.40;;;;;;;19.49;93.79;98429.41;5081284;28;20467;-57
2021/09/16 09:31:46;;;;;;;8.23;5.18;;;;;;;19.70;94.49;98462.63;5093973;28;20105;-59
2021/09/16 09:34:33;;;;;;;8.75;4.75;;;;;;;19.66;92.22;98452.69;5085190;28;20059;-59
2021/09/16 09:37:11;;;;;;;8.50;4.82;;;;;;;19.84;92.14;98449.41;5100860;28;20027;-59
2021/09/16 09:39:37;;;;;;;6.85;4.32;;;;;;;19.63;89.83;98409.09;5091961;28;20035;-59
2021/09/16 09:42:20;;;;;;;9.57;4.80;;;;;;;19.90;89.99;98448.59;5098054;28;20016;-59
2021/09/16 09:44:45;;;;;;;7.18;4.65;;;;;;;19.97;89.94;98447.56;5092431;28;20039;-59
2021/09/16 09:47:11;;;;;;;7.70;4.35;;;;;;;20.10;89.80;98444.03;5094244;28;20035;-59
2021/09/16 09:49:38;;;;;;;6.50;4.10;;;;;;;20.20;89.20;98445.41;5095614;28;20031;-57
2021/09/16 09:52:04;;;;;;;8.40;4.53;;;;;;;20.04;88.77;98412.41;5072447;28;20053;-58
2021/09/16 09:54:38;;;;;;;8.15;4.57;;;;;;;20.35;88.24;98444.13;5091019;28;20027;-58
2021/09/16 09:57:10;;;;;;;8.27;4.70;;;;;;;20.52;88.46;98447.06;5071555;28;20137;-58
2021/09/16 10:00:16;;;;;;;7.60;4.72;;;;;;;20.72;88.55;98440.88;5096671;28;20062;-58
2021/09/16 10:02:49;;;;;;;7.15;4.78;;;;;;;20.66;88.57;98439.06;5074929;28;20473;-58
2021/09/16 10:05:35;;;;;;;7.72;4.47;;;;;;;20.60;88.72;98440.72;5081535;28;20032;-58
2021/09/16 10:08:06;;;;;;;6.32;3.63;;;;;;;20.49;87.34;98447.47;5091592;28;20031;-58
2021/09/16 10:10:37;;;;;;;6.30;3.70;;;;;;;20.52;86.37;98448.91;5089370;28;20069;-58
2021/09/16 10:13:03;;;;;;;6.00;3.33;;;;;;;20.34;85.71;98439.84;5088765;28;20096;-58
2021/09/16 10:15:29;;;;;;;7.03;3.97;;;;;;;20.36;87.56;98439.66;5080883;28;20573;-58
2021/09/16 10:17:54;;;;;;;6.03;3.47;;;;;;;20.29;85.25;98430.94;5089481;28;20134;-58
2021/09/16 10:20:25;;;;;;;6.00;3.17;;;;;;;20.38;86.39;98428.88;5071802;28;20059;-58
2021/09/16 10:22:55;;;;;;;7.43;4.30;;;;;;;20.50;86.44;98446.47;5088151;28;20051;-58
2021/09/16 10:25:23;;;;;;;6.25;4.22;;;;;;;20.63;86.91;98450.88;5088587;28;20086;-58
2021/09/16 10:28:08;;;;;;;10.18;6.07;;;;;;;20.78;89.66;98452.41;5083318;28;20032;-58
2021/09/16 10:30:44;;;;;;;10.50;6.35;;;;;;;20.87;90.05;98457.22;5093287;28;20126;-58
2021/09/16 10:33:17;;;;;;;9.48;5.93;;;;;;;20.98;88.82;98441.69;5089899;28;20047;-58
2021/09/16 10:35:59;;;;;;;10.80;5.85;;;;;;;21.08;88.22;98436.72;5088251;28;20036;-58
2021/09/16 10:38:24;;;;;;;9.88;6.25;;;;;;;21.18;88.77;98447.63;5090234;28;20027;-58
2021/09/16 10:41:16;;;;;;;9.13;6.22;;;;;;;21.13;87.96;98445.59;5092715;28;20104;-58
2021/09/16 10:43:52;;;;;;;10.32;7.00;;;;;;;21.03;88.64;98447.94;5093983;28;20032;-58
2021/09/16 10:46:37;;;;;;;10.90;6.90;;;;;;;20.88;90.06;98413.09;5070927;28;20419;-58
2021/09/16 10:49:21;;;;;;;8.48;6.70;;;;;;;20.96;90.64;98433.19;5090872;28;20029;-59
2021/09/16 10:51:54;;;;;;;10.48;6.05;;;;;;;20.92;90.63;98415.09;5097074;28;20129;-58
2021/09/16 10:54:22;;;;;;;9.20;6.13;;;;;;;20.99;91.49;98420.34;5098760;28;20031;-58
2021/09/16 10:57:16;;;;;;;9.02;5.63;;;;;;;21.05;90.57;98423.94;5097710;28;20110;-58
2021/09/16 10:59:51;;;;;;;9.52;5.32;;;;;;;21.13;90.09;98435.03;5095683;28;20275;-58
2021/09/16 11:02:20;;;;;;;8.93;5.43;;;;;;;21.18;90.44;98439.69;5101487;28;20042;-58
2021/09/16 11:04:55;;;;;;;8.98;5.15;;;;;;;21.17;89.34;98431.97;5094006;28;20034;-58
2021/09/16 11:07:33;;;;;;;10.57;5.22;;;;;;;21.18;88.34;98426.47;5092928;28;20406;-58
2021/09/16 11:10:14;;;;;;;7.60;4.80;;;;;;;21.28;89.12;98418.03;5095313;28;20023;-58
2021/09/16 11:12:40;;;;;;;6.55;4.22;;;;;;;21.43;88.03;98413.19;5094222;28;20043;-59
2021/09/16 11:15:06;;;;;;;9.73;5.03;;;;;;;21.28;87.99;98386.28;5094659;28;20043;-58
2021/09/16 11:17:32;;;;;;;8.50;4.68;;;;;;;21.54;87.51;98414.34;5089844;28;20112;-58
2021/09/16 11:19:58;;;;;;;7.30;4.35;;;;;;;21.28;86.04;98378.38;5098167;28;20024;-58
2021/09/16 11:22:23;;;;;;;7.88;4.30;;;;;;;21.67;87.37;98418.69;5101726;28;20034;-58
2021/09/16 11:24:52;;;;;;;7.60;4.30;;;;;;;21.46;86.92;98385.53;5073079;28;20027;-58